Time;durP1;ratioP1;P1;durP2;ratioP2;P2;SDS_P1;SDS_P2;PMS_P1;PMS_P2;Temp;Humidity;BMP_temperature;BMP_pressure;BME280_temperature;BME280_humidity;BME280_pressure;Samples;Min_cycle;Max_cycle;Signal;HPM_P1;HPM_P2
2023/04/25 00:01:29;;;;;;;0.00;0.00;;;;;;;4.65;90.11;100288.09;6191626;22;20007;-77
2023/04/25 00:03:54;;;;;;;0.00;0.00;;;;;;;4.45;89.61;100283.75;6213054;22;20014;-74
2023/04/25 00:06:19;;;;;;;0.00;0.00;;;;;;;4.37;90.66;100293.03;6244404;22;20004;-74
2023/04/25 00:08:45;;;;;;;0.00;0.00;;;;;;;4.27;90.51;100298.16;6221188;22;20011;-74
2023/04/25 00:11:10;;;;;;;0.00;0.00;;;;;;;4.14;90.34;100288.31;6242071;22;20422;-74
2023/04/25 00:13:36;;;;;;;0.00;0.00;;;;;;;4.12;90.97;100295.03;6194423;22;20000;-75
2023/04/25 00:16:02;;;;;;;0.00;0.00;;;;;;;4.03;91.14;100286.38;6264257;22;20035;-75
2023/04/25 00:18:32;;;;;;;0.00;0.00;;;;;;;4.05;91.92;100302.41;6272364;22;20079;-74
2023/04/25 00:20:58;;;;;;;0.00;0.00;;;;;;;3.98;91.66;100297.88;6265370;22;20004;-75
2023/04/25 00:23:23;;;;;;;0.00;0.00;;;;;;;3.89;91.46;100283.00;6242653;22;20003;-76
2023/04/25 00:25:49;;;;;;;0.10;0.10;;;;;;;3.90;92.25;100292.78;6292978;22;20094;-75
2023/04/25 00:28:15;;;;;;;0.00;0.00;;;;;;;3.85;92.08;100300.72;6267451;22;20007;-75
2023/04/25 00:30:42;;;;;;;0.00;0.00;;;;;;;3.78;92.16;100302.66;6270497;22;20062;-75
2023/04/25 00:33:08;;;;;;;0.00;0.00;;;;;;;3.69;92.59;100307.53;6242873;22;20022;-74
2023/04/25 00:35:34;;;;;;;0.00;0.00;;;;;;;3.66;93.06;100303.44;6271781;22;20086;-75
2023/04/25 00:38:00;;;;;;;0.10;0.10;;;;;;;3.61;93.04;100295.13;6271710;22;20438;-75
2023/04/25 00:40:26;;;;;;;0.10;0.10;;;;;;;3.66;93.30;100303.44;6264111;22;20003;-75
2023/04/25 00:42:52;;;;;;;0.00;0.00;;;;;;;3.63;93.24;100303.84;6271671;22;20007;-75
2023/04/25 00:45:19;;;;;;;0.00;0.00;;;;;;;3.58;93.99;100305.59;6264030;22;20003;-74
2023/04/25 00:47:45;;;;;;;0.00;0.00;;;;;;;3.51;93.55;100305.63;6271969;22;20003;-74
2023/04/25 00:50:11;;;;;;;0.00;0.00;;;;;;;3.48;94.32;100327.72;6264365;22;20567;-75
2023/04/25 00:52:40;;;;;;;0.00;0.00;;;;;;;3.39;93.95;100323.63;6268414;22;20395;-73
2023/04/25 00:55:07;;;;;;;0.00;0.00;;;;;;;3.34;94.11;100316.16;6268514;22;20011;-74
2023/04/25 00:57:33;;;;;;;0.10;0.10;;;;;;;3.29;94.96;100324.13;6264236;22;20138;-74
2023/04/25 00:59:58;;;;;;;0.00;0.00;;;;;;;3.22;94.63;100329.56;6241368;22;20026;-74
2023/04/25 01:02:25;;;;;;;0.00;0.00;;;;;;;3.22;95.27;100345.78;6264196;22;20053;-75
2023/04/25 01:04:51;;;;;;;0.00;0.00;;;;;;;3.18;95.32;100343.75;6268341;22;20000;-73
2023/04/25 01:07:19;;;;;;;0.00;0.00;;;;;;;3.07;95.58;100338.00;6265032;22;20445;-74
2023/04/25 01:09:46;;;;;;;0.00;0.00;;;;;;;3.10;95.70;100352.97;6268045;22;20003;-74
2023/04/25 01:12:12;;;;;;;0.00;0.00;;;;;;;3.07;95.53;100358.81;6271325;22;20046;-74
2023/04/25 01:14:38;;;;;;;0.08;0.08;;;;;;;3.03;95.49;100363.81;6244280;22;20027;-74
2023/04/25 01:17:04;;;;;;;0.00;0.00;;;;;;;3.02;95.58;100369.41;6247150;22;20011;-74
2023/04/25 01:19:29;;;;;;;0.10;0.10;;;;;;;2.92;95.46;100359.94;6274326;22;20045;-75
2023/04/25 01:21:55;;;;;;;0.00;0.00;;;;;;;2.97;96.01;100370.91;6273448;22;20022;-75
2023/04/25 01:24:21;;;;;;;0.00;0.00;;;;;;;2.87;95.86;100354.34;6268455;22;20007;-74
2023/04/25 01:26:49;;;;;;;0.08;0.08;;;;;;;2.92;96.17;100369.88;6300817;22;19991;-74
2023/04/25 01:29:20;;;;;;;0.00;0.00;;;;;;;2.95;96.24;100373.00;6246597;22;20365;-75
2023/04/25 01:31:46;;;;;;;0.10;0.10;;;;;;;2.97;96.07;100376.31;6272544;22;20014;-74
2023/04/25 01:34:12;;;;;;;0.00;0.00;;;;;;;3.02;96.26;100377.53;6245742;22;20091;-74
2023/04/25 01:36:38;;;;;;;0.00;0.00;;;;;;;3.06;96.43;100374.16;6269112;22;20027;-75
2023/04/25 01:39:04;;;;;;;0.00;0.00;;;;;;;3.10;96.24;100369.19;6301665;22;20247;-74
2023/04/25 01:41:29;;;;;;;0.00;0.00;;;;;;;3.04;95.85;100360.06;6294856;22;20003;-75
2023/04/25 01:43:55;;;;;;;0.00;0.00;;;;;;;3.02;95.99;100367.53;6301563;22;19999;-75
2023/04/25 01:46:21;;;;;;;0.00;0.00;;;;;;;2.99;96.06;100365.28;6297643;22;20330;-75
2023/04/25 01:48:47;;;;;;;0.00;0.00;;;;;;;2.95;96.15;100361.38;6272322;22;20015;-75
2023/04/25 01:51:33;;;;;;;0.00;0.00;;;;;;;2.85;96.15;100339.38;6273253;22;20003;-76
2023/04/25 01:54:00;;;;;;;0.00;0.00;;;;;;;2.95;96.15;100358.69;6274181;22;20037;-74
2023/04/25 01:56:30;;;;;;;0.00;0.00;;;;;;;2.92;96.51;100368.03;6221489;22;20025;-74
2023/04/25 01:58:55;;;;;;;0.00;0.00;;;;;;;2.90;96.41;100363.88;6248032;22;20398;-74
2023/04/25 02:01:21;;;;;;;0.10;0.10;;;;;;;2.90;96.69;100374.69;6225556;22;20011;-74
2023/04/25 02:03:46;;;;;;;0.05;0.05;;;;;;;2.82;96.76;100367.69;6298334;22;20082;-75
2023/04/25 02:06:11;;;;;;;0.00;0.00;;;;;;;2.82;96.97;100367.69;6274354;22;20056;-75
2023/04/25 02:08:37;;;;;;;0.00;0.00;;;;;;;2.73;97.27;100358.16;6271682;22;20107;-74
2023/04/25 02:11:03;;;;;;;0.00;0.00;;;;;;;2.77;97.15;100372.88;6303203;22;20528;-75
2023/04/25 02:13:28;;;;;;;0.00;0.00;;;;;;;2.72;97.76;100365.44;6274447;22;20086;-75
2023/04/25 02:15:53;;;;;;;0.00;0.00;;;;;;;2.77;97.42;100375.59;6215173;22;20030;-75
2023/04/25 02:18:20;;;;;;;0.00;0.00;;;;;;;2.78;97.17;100377.25;6266398;22;20284;-75
2023/04/25 02:20:46;;;;;;;0.00;0.00;;;;;;;2.83;97.05;100380.13;6238150;22;20008;-73
2023/04/25 02:23:12;;;;;;;0.10;0.10;;;;;;;2.84;96.88;100381.78;6243601;22;20079;-74
2023/04/25 02:25:37;;;;;;;0.00;0.00;;;;;;;2.81;96.89;100378.69;6214785;22;20377;-73
2023/04/25 02:28:03;;;;;;;0.00;0.00;;;;;;;2.86;96.86;100390.50;6241979;22;20003;-73
2023/04/25 02:30:29;;;;;;;0.00;0.00;;;;;;;2.83;97.09;100384.69;6244550;22;20145;-74
2023/04/25 02:32:54;;;;;;;0.00;0.00;;;;;;;2.84;96.64;100384.47;6238638;22;20232;-73
2023/04/25 02:35:20;;;;;;;0.00;0.00;;;;;;;2.89;96.82;100387.38;6270838;22;20018;-74
2023/04/25 02:37:45;;;;;;;0.00;0.00;;;;;;;2.95;96.59;100393.78;6186526;22;20049;-73
2023/04/25 02:40:11;;;;;;;0.00;0.00;;;;;;;2.94;96.50;100398.34;6195907;22;20003;-74
2023/04/25 02:42:36;;;;;;;0.00;0.00;;;;;;;2.88;96.16;100383.00;6265292;22;20526;-74
2023/04/25 02:45:02;;;;;;;0.00;0.00;;;;;;;2.80;95.60;100380.56;6244683;22;20377;-74
2023/04/25 02:47:28;;;;;;;0.00;0.00;;;;;;;2.72;95.70;100395.13;6215724;22;20130;-74
2023/04/25 02:49:54;;;;;;;0.00;0.00;;;;;;;2.59;96.03;100392.50;6236185;22;20034;-74
2023/04/25 02:52:19;;;;;;;0.00;0.00;;;;;;;2.48;95.96;100399.38;6271183;22;20011;-75
2023/04/25 02:54:45;;;;;;;0.00;0.00;;;;;;;2.41;96.03;100393.16;6186710;22;20285;-75
2023/04/25 02:57:10;;;;;;;0.00;0.00;;;;;;;2.29;96.15;100394.88;6270857;22;20073;-74
2023/04/25 02:59:36;;;;;;;0.10;0.10;;;;;;;2.25;96.38;100395.31;6191270;22;20018;-74
2023/04/25 03:02:01;;;;;;;0.00;0.00;;;;;;;2.23;96.34;100399.25;6189880;22;20007;-74
2023/04/25 03:04:27;;;;;;;0.00;0.00;;;;;;;2.32;96.49;100405.25;6242597;22;20004;-75
2023/04/25 03:06:53;;;;;;;0.00;0.00;;;;;;;2.38;96.54;100409.78;6264626;22;20068;-74
2023/04/25 03:09:19;;;;;;;0.00;0.00;;;;;;;2.42;96.53;100405.63;6245922;22;20087;-74
2023/04/25 03:11:45;;;;;;;0.00;0.00;;;;;;;2.53;95.95;100417.66;6213522;22;20015;-74
2023/04/25 03:14:11;;;;;;;0.00;0.00;;;;;;;2.59;95.69;100417.63;6245476;22;20011;-74
2023/04/25 03:16:37;;;;;;;0.00;0.00;;;;;;;2.64;95.34;100414.28;6269151;22;20056;-73
2023/04/25 03:19:03;;;;;;;0.00;0.00;;;;;;;2.75;94.68;100420.91;6301092;22;19999;-73
2023/04/25 03:21:30;;;;;;;0.00;0.00;;;;;;;2.77;95.00;100433.16;6300834;22;20003;-74
2023/04/25 03:23:56;;;;;;;0.00;0.00;;;;;;;2.75;94.66;100415.50;6269271;22;20033;-74
2023/04/25 03:26:22;;;;;;;0.00;0.00;;;;;;;2.70;94.03;100412.59;6247021;22;20007;-74
2023/04/25 03:28:47;;;;;;;0.00;0.00;;;;;;;2.69;94.17;100427.16;6250732;22;20010;-75
2023/04/25 03:31:12;;;;;;;0.00;0.00;;;;;;;2.58;94.20;100415.94;6299901;22;20030;-75
2023/04/25 03:33:38;;;;;;;0.00;0.00;;;;;;;2.54;94.16;100422.84;6246233;22;20479;-74
2023/04/25 03:36:03;;;;;;;0.00;0.00;;;;;;;2.53;94.14;100434.69;6218754;22;20015;-75
2023/04/25 03:38:29;;;;;;;0.00;0.00;;;;;;;2.55;94.67;100427.19;6248875;22;20376;-74
2023/04/25 03:40:56;;;;;;;0.00;0.00;;;;;;;2.56;94.38;100431.53;6219518;22;20006;-74
2023/04/25 03:43:21;;;;;;;0.00;0.00;;;;;;;2.59;93.99;100433.81;6247201;22;20026;-74
2023/04/25 03:45:47;;;;;;;0.08;0.08;;;;;;;2.60;93.90;100438.19;6250483;22;20417;-74
2023/04/25 03:48:12;;;;;;;0.00;0.00;;;;;;;2.65;93.25;100448.34;6293877;22;20311;-73
2023/04/25 03:50:37;;;;;;;0.00;0.00;;;;;;;2.65;93.20;100447.53;6244910;22;20060;-75
2023/04/25 03:53:03;;;;;;;0.00;0.00;;;;;;;2.61;93.40;100442.56;6242412;22;20118;-74
2023/04/25 03:55:28;;;;;;;0.10;0.10;;;;;;;2.63;92.88;100450.44;6220805;22;20015;-74
2023/04/25 03:57:54;;;;;;;0.00;0.00;;;;;;;2.61;93.17;100457.91;6270682;22;20334;-75
2023/04/25 04:00:19;;;;;;;0.00;0.00;;;;;;;2.59;93.01;100449.19;6300208;22;20040;-73
2023/04/25 04:02:45;;;;;;;0.00;0.00;;;;;;;2.63;92.67;100455.84;6248704;22;20021;-74
2023/04/25 04:05:10;;;;;;;0.00;0.00;;;;;;;2.62;92.23;100452.28;6269561;22;20056;-74
2023/04/25 04:07:39;;;;;;;0.00;0.00;;;;;;;2.61;92.45;100445.25;6299246;22;20397;-75
2023/04/25 04:10:07;;;;;;;0.00;0.00;;;;;;;2.65;91.92;100467.25;6297984;22;20011;-74
2023/04/25 04:12:33;;;;;;;0.00;0.00;;;;;;;2.64;92.00;100467.47;6271602;22;20007;-74
2023/04/25 04:14:58;;;;;;;0.00;0.00;;;;;;;2.64;92.21;100467.47;6269576;22;20025;-74
2023/04/25 04:17:24;;;;;;;0.00;0.00;;;;;;;2.61;91.47;100466.00;6247016;22;20125;-73
2023/04/25 04:19:50;;;;;;;0.00;0.00;;;;;;;2.55;91.42;100464.97;6248769;22;20418;-74
2023/04/25 04:22:16;;;;;;;0.05;0.05;;;;;;;2.47;91.75;100470.63;6267334;22;20007;-75
2023/04/25 04:24:43;;;;;;;0.00;0.00;;;;;;;2.43;91.58;100466.69;6249564;22;19996;-74
2023/04/25 04:27:09;;;;;;;0.00;0.00;;;;;;;2.38;91.25;100466.47;6299124;22;20011;-74
2023/04/25 04:29:34;;;;;;;0.00;0.00;;;;;;;2.30;91.19;100467.53;6243814;22;20011;-74
2023/04/25 04:32:01;;;;;;;0.00;0.00;;;;;;;2.22;91.48;100474.00;6247757;22;19995;-73
2023/04/25 04:34:26;;;;;;;0.00;0.00;;;;;;;2.11;91.35;100468.41;6265643;22;20011;-74
2023/04/25 04:36:52;;;;;;;0.00;0.00;;;;;;;1.99;91.85;100473.59;6249831;22;20062;-73
2023/04/25 04:39:17;;;;;;;0.00;0.00;;;;;;;1.85;92.13;100465.47;6242944;22;20404;-73
2023/04/25 04:41:43;;;;;;;0.00;0.00;;;;;;;1.80;92.18;100478.78;6247914;22;20470;-74
2023/04/25 04:44:08;;;;;;;0.00;0.00;;;;;;;1.69;92.25;100471.28;6274718;22;20087;-74
2023/04/25 04:46:41;;;;;;;0.00;0.00;;;;;;;1.60;92.24;100483.31;6269113;22;20007;-74
2023/04/25 04:49:10;;;;;;;0.00;0.00;;;;;;;1.52;92.07;100487.03;6270868;22;20018;-74
2023/04/25 04:51:36;;;;;;;0.00;0.00;;;;;;;1.45;92.16;100487.03;6246842;22;20038;-76
2023/04/25 04:54:04;;;;;;;0.00;0.00;;;;;;;1.41;92.20;100487.66;6300081;22;20007;-75
2023/04/25 04:56:30;;;;;;;0.00;0.00;;;;;;;1.34;92.43;100495.69;6264057;22;20440;-74
2023/04/25 04:58:59;;;;;;;0.00;0.00;;;;;;;1.30;92.20;100497.13;6273773;22;20019;-74
2023/04/25 05:01:26;;;;;;;0.00;0.00;;;;;;;1.29;92.26;100508.97;6265529;22;20329;-73
2023/04/25 05:03:52;;;;;;;0.10;0.10;;;;;;;1.25;92.72;100513.09;6296907;22;19995;-74
2023/04/25 05:06:18;;;;;;;0.00;0.00;;;;;;;1.25;92.45;100527.38;6248395;22;20086;-73
2023/04/25 05:08:44;;;;;;;0.10;0.10;;;;;;;1.22;92.09;100514.31;6295320;22;19995;-73
2023/04/25 05:11:10;;;;;;;0.00;0.00;;;;;;;1.22;92.52;100519.72;6270216;22;20090;-74
2023/04/25 05:13:35;;;;;;;0.00;0.00;;;;;;;1.21;92.33;100524.28;6266320;22;20335;-74
2023/04/25 05:16:01;;;;;;;0.10;0.10;;;;;;;1.24;92.05;100538.38;6272578;22;20791;-73
2023/04/25 05:18:26;;;;;;;0.00;0.00;;;;;;;1.28;92.21;100540.44;6240962;22;20359;-72
2023/04/25 05:20:54;;;;;;;0.00;0.00;;;;;;;1.31;92.05;100536.53;6267249;22;20026;-73
2023/04/25 05:23:19;;;;;;;0.00;0.00;;;;;;;1.34;91.97;100544.19;6273561;22;20010;-72
2023/04/25 05:25:45;;;;;;;0.00;0.00;;;;;;;1.39;92.01;100552.53;6262711;22;20003;-73
2023/04/25 05:28:12;;;;;;;0.00;0.00;;;;;;;1.39;91.88;100552.53;6248968;22;20027;-73
2023/04/25 05:30:38;;;;;;;0.00;0.00;;;;;;;1.47;91.61;100560.41;6294670;22;20003;-73
2023/04/25 05:33:03;;;;;;;0.00;0.00;;;;;;;1.51;91.73;100558.97;6272496;22;20018;-73
2023/04/25 05:35:29;;;;;;;0.00;0.00;;;;;;;1.54;91.80;100560.44;6274551;22;20008;-74
2023/04/25 05:37:54;;;;;;;0.00;0.00;;;;;;;1.59;91.87;100562.53;6245353;22;20017;-74
2023/04/25 05:40:20;;;;;;;0.00;0.00;;;;;;;1.63;91.35;100563.78;6245981;22;20038;-74
2023/04/25 05:42:46;;;;;;;0.00;0.00;;;;;;;1.65;91.64;100551.78;6297922;22;20647;-74
2023/04/25 05:45:11;;;;;;;0.00;0.00;;;;;;;1.68;90.91;100553.19;6250831;22;20014;-73
2023/04/25 05:47:36;;;;;;;0.10;0.10;;;;;;;1.77;91.30;100559.22;6243479;22;20093;-74
2023/04/25 05:50:02;;;;;;;0.00;0.00;;;;;;;1.76;91.49;100550.31;6271934;22;20563;-74
2023/04/25 05:52:27;;;;;;;0.10;0.10;;;;;;;1.84;91.23;100555.53;6300213;22;20026;-73
2023/04/25 05:54:53;;;;;;;0.00;0.00;;;;;;;1.92;90.92;100566.09;6264324;22;20483;-74
2023/04/25 05:57:25;;;;;;;0.00;0.00;;;;;;;1.98;90.97;100566.34;6302479;22;20031;-74
2023/04/25 05:59:51;;;;;;;0.00;0.00;;;;;;;2.02;90.86;100559.50;6266694;22;20014;-73
2023/04/25 06:02:17;;;;;;;0.00;0.00;;;;;;;2.07;90.81;100554.31;6270899;22;20037;-74
2023/04/25 06:04:42;;;;;;;0.00;0.00;;;;;;;2.17;90.28;100560.13;6295799;22;20044;-73
2023/04/25 06:07:08;;;;;;;0.00;0.00;;;;;;;2.12;89.97;100549.13;6246206;22;20018;-74
2023/04/25 06:09:34;;;;;;;0.00;0.00;;;;;;;2.28;90.16;100572.16;6249809;22;20007;-74
2023/04/25 06:11:59;;;;;;;0.00;0.00;;;;;;;2.26;89.96;100563.44;6266307;22;19999;-74
2023/04/25 06:14:25;;;;;;;0.00;0.00;;;;;;;2.34;90.21;100565.94;6245799;22;20007;-74
2023/04/25 06:16:50;;;;;;;0.10;0.10;;;;;;;2.48;89.63;100572.16;6244244;22;20962;-73
2023/04/25 06:19:16;;;;;;;0.00;0.00;;;;;;;2.53;89.50;100575.06;6268578;22;20338;-73
2023/04/25 06:21:43;;;;;;;0.00;0.00;;;;;;;2.67;89.67;100575.03;6243479;22;20007;-76
2023/04/25 06:24:08;;;;;;;0.00;0.00;;;;;;;2.68;89.26;100568.59;6296139;22;20864;-73
2023/04/25 06:26:34;;;;;;;0.00;0.00;;;;;;;2.81;88.98;100579.38;6246102;22;20015;-73
2023/04/25 06:28:59;;;;;;;0.00;0.00;;;;;;;2.90;88.77;100588.91;6268382;22;20003;-73
2023/04/25 06:31:25;;;;;;;0.00;0.00;;;;;;;2.99;88.58;100594.09;6245402;22;20087;-74
2023/04/25 06:33:54;;;;;;;0.00;0.00;;;;;;;3.04;88.82;100594.28;6222373;22;20007;-74
2023/04/25 06:36:24;;;;;;;0.00;0.00;;;;;;;3.08;88.30;100598.22;6267582;22;20038;-73
2023/04/25 06:38:51;;;;;;;0.00;0.00;;;;;;;3.20;88.28;100607.34;6275593;22;20031;-74
2023/04/25 06:41:16;;;;;;;0.00;0.00;;;;;;;3.28;88.16;100606.28;6265192;22;20007;-72
2023/04/25 06:43:46;;;;;;;0.00;0.00;;;;;;;3.31;87.93;100598.56;6248231;22;20035;-74
2023/04/25 06:46:12;;;;;;;0.00;0.00;;;;;;;3.47;87.81;100604.53;6293909;22;20052;-72
2023/04/25 06:48:38;;;;;;;0.00;0.00;;;;;;;3.57;87.44;100613.00;6272104;22;20007;-75
2023/04/25 06:51:03;;;;;;;0.00;0.00;;;;;;;3.65;87.11;100610.06;6245148;22;20034;-73
2023/04/25 06:53:29;;;;;;;0.00;0.00;;;;;;;3.82;87.46;100610.38;6272336;22;20299;-75
2023/04/25 06:55:54;;;;;;;0.00;0.00;;;;;;;3.96;87.76;100608.44;6244920;22;20011;-78
2023/04/25 06:58:20;;;;;;;0.10;0.10;;;;;;;4.18;88.04;100613.50;6221589;22;20019;-76
2023/04/25 07:00:45;;;;;;;0.00;0.00;;;;;;;4.34;86.95;100610.25;6246569;22;20022;-74
2023/04/25 07:03:13;;;;;;;0.00;0.00;;;;;;;4.45;85.91;100611.41;6242322;22;20003;-75
2023/04/25 07:05:40;;;;;;;0.00;0.00;;;;;;;4.62;85.30;100614.41;6249823;22;20020;-75
2023/04/25 07:08:06;;;;;;;0.00;0.00;;;;;;;4.68;85.33;100613.50;6264802;22;20033;-75
2023/04/25 07:10:31;;;;;;;0.10;0.10;;;;;;;4.74;84.68;100605.56;6273886;22;20011;-75
2023/04/25 07:12:57;;;;;;;0.00;0.00;;;;;;;4.83;83.60;100610.47;6219791;22;20094;-74
2023/04/25 07:15:22;;;;;;;0.00;0.00;;;;;;;4.95;84.05;100621.41;6251515;22;20498;-75
2023/04/25 07:17:47;;;;;;;0.00;0.00;;;;;;;5.04;83.45;100621.94;6216206;22;20019;-73
2023/04/25 07:20:13;;;;;;;0.00;0.00;;;;;;;5.14;82.42;100627.66;6195021;22;20018;-74
2023/04/25 07:22:38;;;;;;;0.00;0.00;;;;;;;5.27;82.85;100634.84;6210598;22;20034;-75
2023/04/25 07:25:05;;;;;;;0.00;0.00;;;;;;;5.40;82.62;100631.97;6195200;22;20035;-75
2023/04/25 07:27:30;;;;;;;0.00;0.00;;;;;;;5.47;82.21;100629.16;6236370;22;20067;-75
2023/04/25 07:29:59;;;;;;;0.00;0.00;;;;;;;5.67;82.30;100630.81;6239540;22;20011;-75
2023/04/25 07:32:26;;;;;;;0.00;0.00;;;;;;;5.83;81.56;100626.63;6213101;22;20000;-74
2023/04/25 07:34:51;;;;;;;0.00;0.00;;;;;;;5.98;81.28;100631.69;6242660;22;20005;-75
2023/04/25 07:37:18;;;;;;;0.00;0.00;;;;;;;6.02;80.89;100633.69;6218501;22;20018;-75
2023/04/25 07:39:45;;;;;;;0.00;0.00;;;;;;;6.10;80.76;100635.25;6211160;22;20012;-73
2023/04/25 07:42:19;;;;;;;0.10;0.10;;;;;;;6.19;79.64;100611.31;6243108;22;20385;-73
2023/04/25 07:44:48;;;;;;;0.00;0.00;;;;;;;6.33;79.98;100599.19;6207022;22;20027;-74
2023/04/25 07:47:18;;;;;;;0.00;0.00;;;;;;;6.59;79.52;100616.94;6265322;22;20415;-75
2023/04/25 07:50:03;;;;;;;;;;;;;;;;;;;;;
2023/04/25 07:52:46;;;;;;;0.00;0.00;;;;;;;6.64;77.12;100597.22;6272212;22;20086;-74
2023/04/25 07:55:11;;;;;;;0.00;0.00;;;;;;;6.79;76.29;100626.63;6238011;22;20007;-74
2023/04/25 07:58:21;;;;;;;;;;;;;;;;;;;;;
2023/04/25 08:00:49;;;;;;;0.10;0.10;;;;;;;6.90;75.44;100605.97;6272039;22;20075;-74
2023/04/25 08:03:17;;;;;;;0.00;0.00;;;;;;;7.14;74.91;100626.63;6228329;22;20004;-75
2023/04/25 08:05:43;;;;;;;0.00;0.00;;;;;;;7.25;74.71;100621.41;6238578;22;20007;-74
2023/04/25 08:08:08;;;;;;;0.00;0.00;;;;;;;7.33;74.45;100612.91;6262595;22;20085;-75
2023/04/25 08:10:37;;;;;;;0.00;0.00;;;;;;;7.60;73.96;100634.13;6238013;22;20015;-75
2023/04/25 08:13:02;;;;;;;0.00;0.00;;;;;;;7.66;73.18;100636.69;6242553;22;20083;-75
2023/04/25 08:15:51;;;;;;;0.00;0.00;;;;;;;7.85;73.16;100650.13;6238072;22;20043;-75
2023/04/25 08:18:17;;;;;;;0.00;0.00;;;;;;;7.92;72.28;100644.56;6264875;22;20358;-74
2023/04/25 08:20:44;;;;;;;0.03;0.03;;;;;;;7.99;72.90;100631.63;6263721;22;20007;-75
2023/04/25 08:23:12;;;;;;;0.00;0.00;;;;;;;8.17;72.39;100622.41;6216402;22;20019;-75
2023/04/25 08:25:41;;;;;;;0.00;0.00;;;;;;;8.31;71.05;100625.63;6264738;22;20006;-75
2023/04/25 08:28:26;;;;;;;0.00;0.00;;;;;;;8.45;70.27;100620.72;6269154;22;20019;-76
2023/04/25 08:30:54;;;;;;;0.00;0.00;;;;;;;8.79;69.97;100647.97;6239591;22;20018;-74
2023/04/25 08:33:22;;;;;;;0.00;0.00;;;;;;;8.70;68.79;100612.97;6270174;22;20008;-75
2023/04/25 08:35:50;;;;;;;0.00;0.00;;;;;;;8.80;67.01;100620.47;6263783;22;20011;-74
2023/04/25 08:38:27;;;;;;;0.00;0.00;;;;;;;8.86;67.16;100613.19;6214027;22;20423;-74
2023/04/25 08:40:56;;;;;;;0.00;0.00;;;;;;;9.01;66.39;100612.59;6240582;22;20006;-74
2023/04/25 08:43:36;;;;;;;0.00;0.00;;;;;;;9.09;65.48;100614.88;6239541;22;20375;-75
2023/04/25 08:46:03;;;;;;;0.00;0.00;;;;;;;9.47;65.61;100645.16;6239922;22;20015;-76
2023/04/25 08:48:32;;;;;;;0.00;0.00;;;;;;;9.43;63.09;100631.16;6214652;22;20041;-76
2023/04/25 08:51:02;;;;;;;0.00;0.00;;;;;;;9.59;63.00;100630.28;6271658;22;20580;-74
2023/04/25 08:53:31;;;;;;;0.00;0.00;;;;;;;9.97;62.54;100630.44;6267625;22;20027;-75
2023/04/25 08:56:03;;;;;;;0.00;0.00;;;;;;;11.36;59.61;100623.34;6238451;22;20426;-75
2023/04/25 08:58:56;;;;;;;0.00;0.00;;;;;;;13.84;52.64;100646.97;6214048;22;20054;-74
2023/04/25 09:01:25;;;;;;;0.00;0.00;;;;;;;14.83;48.08;100640.56;6225070;22;20798;-75
2023/04/25 09:03:53;;;;;;;0.00;0.00;;;;;;;14.96;47.00;100628.00;6241782;22;20004;-75
2023/04/25 09:06:19;;;;;;;0.00;0.00;;;;;;;14.59;46.31;100651.44;6243846;22;20054;-74
2023/04/25 09:08:44;;;;;;;0.00;0.00;;;;;;;13.81;47.67;100638.47;6240635;22;20394;-75
2023/04/25 09:11:10;;;;;;;0.00;0.00;;;;;;;13.23;48.70;100634.28;6269602;22;19996;-75
2023/04/25 09:13:42;;;;;;;0.00;0.00;;;;;;;13.04;49.56;100623.88;6265417;22;19995;-75
2023/04/25 09:16:08;;;;;;;0.00;0.00;;;;;;;14.00;47.32;100628.47;6245011;22;20106;-74
2023/04/25 09:18:37;;;;;;;0.00;0.00;;;;;;;16.64;42.91;100635.50;6238567;22;21018;-74
2023/04/25 09:21:25;;;;;;;0.00;0.00;;;;;;;20.33;36.84;100624.97;6239441;22;20004;-74
2023/04/25 09:23:51;;;;;;;0.00;0.00;;;;;;;23.78;31.93;100636.63;6241324;22;20010;-74
2023/04/25 09:26:20;;;;;;;0.00;0.00;;;;;;;26.82;28.04;100651.53;6240452;22;20074;-74
2023/04/25 09:28:48;;;;;;;0.00;0.00;;;;;;;28.55;24.55;100637.38;6271552;22;20163;-74
2023/04/25 09:31:24;;;;;;;0.00;0.00;;;;;;;30.08;23.48;100641.13;6238392;22;20003;-74
2023/04/25 09:34:00;;;;;;;0.00;0.00;;;;;;;31.56;20.58;100652.78;6243953;22;20007;-74
2023/04/25 09:36:27;;;;;;;0.00;0.00;;;;;;;32.48;20.79;100627.53;6243352;22;20034;-74
2023/04/25 09:39:02;;;;;;;0.00;0.00;;;;;;;33.68;18.51;100634.72;6242565;22;20004;-74
2023/04/25 09:41:32;;;;;;;0.00;0.00;;;;;;;34.12;17.84;100626.56;6266163;22;20408;-74
2023/04/25 09:44:06;;;;;;;0.00;0.00;;;;;;;35.11;15.94;100624.81;6245465;22;20004;-75
2023/04/25 09:46:38;;;;;;;0.00;0.00;;;;;;;36.10;16.35;100636.88;6214104;22;20065;-75
2023/04/25 09:49:24;;;;;;;;;;;;;;;;;;;;;
2023/04/25 09:52:17;;;;;;;0.00;0.00;;;;;;;38.06;14.65;100640.31;6267993;22;20094;-74
2023/04/25 09:54:46;;;;;;;0.00;0.00;;;;;;;38.16;14.13;100638.41;6259862;22;20015;-73
2023/04/25 09:57:21;;;;;;;0.00;0.00;;;;;;;38.40;14.63;100625.44;6273673;22;19999;-73
2023/04/25 09:59:49;;;;;;;0.00;0.00;;;;;;;38.75;13.06;100627.69;6237193;22;20003;-75
2023/04/25 10:02:19;;;;;;;0.00;0.00;;;;;;;38.81;12.72;100622.19;6269078;22;20003;-75
2023/04/25 10:04:54;;;;;;;0.00;0.00;;;;;;;38.85;12.09;100631.47;6265600;22;20434;-75
2023/04/25 10:07:25;;;;;;;0.00;0.00;;;;;;;39.10;12.10;100627.75;6218169;22;20007;-75
2023/04/25 10:10:01;;;;;;;0.00;0.00;;;;;;;39.93;11.92;100644.94;6265072;22;20011;-75
2023/04/25 10:12:48;;;;;;;;;;;;;;;;;;;;;
2023/04/25 10:15:17;;;;;;;0.00;0.00;;;;;;;39.65;11.72;100606.72;6278999;22;20180;-74
2023/04/25 10:17:43;;;;;;;0.00;0.00;;;;;;;39.84;10.70;100613.38;6247115;22;20021;-74
2023/04/25 10:20:12;;;;;;;0.00;0.00;;;;;;;39.73;11.20;100631.75;6301037;22;20446;-75
2023/04/25 10:23:04;;;;;;;0.00;0.00;;;;;;;40.40;11.13;100641.13;6296353;22;20007;-76
2023/04/25 10:25:33;;;;;;;0.00;0.00;;;;;;;41.24;10.47;100630.00;6270839;22;20018;-75
2023/04/25 10:28:00;;;;;;;0.00;0.00;;;;;;;42.09;10.56;100635.34;6273462;22;20010;-75
2023/04/25 10:30:34;;;;;;;0.00;0.00;;;;;;;43.33;10.51;100638.38;6269910;22;20011;-74
2023/04/25 10:32:59;;;;;;;0.00;0.00;;;;;;;42.96;10.13;100638.56;6294993;22;20007;-76
2023/04/25 10:35:27;;;;;;;0.00;0.00;;;;;;;42.14;9.54;100626.84;6302027;22;20435;-74
2023/04/25 10:38:23;;;;;;;0.00;0.00;;;;;;;42.82;9.75;100633.56;6244800;22;20007;-75
2023/04/25 10:41:26;;;;;;;0.00;0.00;;;;;;;44.30;9.73;100643.19;6270556;22;20492;-74
2023/04/25 10:44:17;;;;;;;0.00;0.00;;;;;;;44.67;9.14;100625.44;6153496;23;20487;-74
2023/04/25 10:46:45;;;;;;;0.00;0.00;;;;;;;45.79;8.69;100631.16;6300567;22;20053;-75
2023/04/25 10:49:32;;;;;;;0.00;0.00;;;;;;;46.26;8.85;100623.22;6271267;22;20011;-75
2023/04/25 10:52:17;;;;;;;0.00;0.00;;;;;;;46.13;7.16;100631.50;6295172;22;20029;-74
2023/04/25 10:54:55;;;;;;;0.00;0.00;;;;;;;45.90;6.93;100631.31;6267403;22;20007;-75
2023/04/25 10:57:48;;;;;;;0.00;0.00;;;;;;;45.65;7.06;100613.41;6275640;22;20009;-74
2023/04/25 11:00:33;;;;;;;0.00;0.00;;;;;;;45.14;7.11;100617.78;6226789;22;20004;-73
2023/04/25 11:03:02;;;;;;;0.00;0.00;;;;;;;45.70;6.45;100609.00;6293812;22;20000;-74
2023/04/25 11:05:45;;;;;;;0.00;0.00;;;;;;;45.79;6.39;100619.59;6268227;22;20007;-73
2023/04/25 11:08:22;;;;;;;0.00;0.00;;;;;;;46.38;7.44;100629.13;6268443;22;20083;-74
2023/04/25 11:10:48;;;;;;;0.00;0.00;;;;;;;47.10;6.48;100624.41;6268325;22;20007;-75
2023/04/25 11:13:18;;;;;;;0.00;0.00;;;;;;;47.01;7.09;100629.06;6264526;22;20003;-75
2023/04/25 11:15:54;;;;;;;0.00;0.00;;;;;;;47.83;6.98;100635.47;6272220;22;20027;-75
2023/04/25 11:18:20;;;;;;;0.00;0.00;;;;;;;48.18;5.72;100623.41;6264467;22;20155;-75
2023/04/25 11:20:48;;;;;;;0.00;0.00;;;;;;;47.91;5.98;100609.66;6270699;22;20011;-75
2023/04/25 11:23:15;;;;;;;0.00;0.00;;;;;;;48.25;6.23;100622.06;6274914;22;20473;-75
2023/04/25 11:25:50;;;;;;;;;;;;;;;;;;;;;
2023/04/25 11:28:22;;;;;;;0.00;0.00;;;;;;;48.42;5.76;100619.97;6276622;22;20102;-74
2023/04/25 11:31:10;;;;;;;0.00;0.00;;;;;;;48.61;6.02;100636.84;6294328;22;20006;-74
2023/04/25 11:33:46;;;;;;;0.00;0.00;;;;;;;49.41;6.10;100602.59;6228647;22;20021;-74
2023/04/25 11:36:19;;;;;;;0.00;0.00;;;;;;;50.33;5.75;100616.00;6272124;22;20010;-75
2023/04/25 11:38:45;;;;;;;0.00;0.00;;;;;;;50.24;4.49;100613.44;6299590;22;20078;-75
2023/04/25 11:41:21;;;;;;;0.00;0.00;;;;;;;48.64;4.59;100600.19;6267655;22;20027;-74
2023/04/25 11:43:51;;;;;;;0.00;0.00;;;;;;;48.80;5.58;100608.06;6272733;22;20059;-74
2023/04/25 11:46:19;;;;;;;0.00;0.00;;;;;;;49.34;4.76;100618.47;6267020;22;20031;-75